createdAt,value
2023-01-09T17:25:47.769Z,7.40
2023-01-09T17:30:53.082Z,7.20
2023-01-09T17:35:58.493Z,7.10
2023-01-09T17:41:06.535Z,7.10
2023-01-09T17:46:17.886Z,7.00
2023-01-09T17:51:23.193Z,7.00
2023-01-09T17:56:33.037Z,7.00
2023-01-09T18:01:38.157Z,7.10
2023-01-09T18:06:43.295Z,7.10
2023-01-09T18:11:51.087Z,7.30
2023-01-09T18:16:56.363Z,7.30
2023-01-09T18:22:03.760Z,7.30
2023-01-09T18:27:11.555Z,7.30
2023-01-09T18:32:16.734Z,7.30
2023-01-09T18:37:22.030Z,7.30
2023-01-09T18:42:29.733Z,7.30
2023-01-09T18:47:34.868Z,7.40
2023-01-09T18:52:40.133Z,7.60
2023-01-09T18:57:47.973Z,7.80
2023-01-09T19:02:53.408Z,7.80
2023-01-09T19:07:58.668Z,7.90
2023-01-09T19:13:06.526Z,8.00
2023-01-09T19:18:11.629Z,8.00
2023-01-09T19:23:17.093Z,8.10
2023-01-09T19:28:24.780Z,8.10
2023-01-09T19:33:29.845Z,8.20
2023-01-09T19:38:34.923Z,8.20
2023-01-09T19:43:42.695Z,8.20
2023-01-09T19:48:47.963Z,8.20
2023-01-09T19:53:54.505Z,8.20
2023-01-09T19:59:03.199Z,8.20
2023-01-09T20:04:13.834Z,8.20
2023-01-09T20:09:22.260Z,8.30
2023-01-09T20:14:30.155Z,8.30
2023-01-09T20:19:35.412Z,8.40
2023-01-09T20:24:40.856Z,8.40
2023-01-09T20:29:49.497Z,8.40
2023-01-09T20:34:54.706Z,8.40
2023-01-09T20:40:00.296Z,8.40
2023-01-09T20:45:09.576Z,8.30
2023-01-09T20:50:16.099Z,8.20
2023-01-09T20:55:21.999Z,8.10
2023-01-09T21:00:32.184Z,8.00
2023-01-09T21:05:37.410Z,8.00
2023-01-09T21:10:42.545Z,7.80
2023-01-09T21:15:50.227Z,7.70
2023-01-09T21:20:55.528Z,7.60
2023-01-09T21:26:00.762Z,7.70
2023-01-09T21:31:08.734Z,7.80
2023-01-09T21:36:13.958Z,7.80
2023-01-09T21:41:31.747Z,7.90
2023-01-09T21:46:57.628Z,7.90
2023-01-09T21:52:03.551Z,7.90
2023-01-09T21:57:09.174Z,7.90
